Time;durP1;ratioP1;P1;durP2;ratioP2;P2;SDS_P1;SDS_P2;PMS_P1;PMS_P2;Temp;Humidity;BMP_temperature;BMP_pressure;BME280_temperature;BME280_humidity;BME280_pressure;Samples;Min_cycle;Max_cycle;Signal;HPM_P1;HPM_P2
2021/07/30 00:01:03;;;;;;;7.50;3.60;;;20.00;61.10;;;;;;5073214;28;20954;-73
2021/07/30 00:03:29;;;;;;;8.33;3.43;;;20.00;61.30;;;;;;5073447;28;20876;-73
2021/07/30 00:05:56;;;;;;;9.60;4.40;;;20.00;60.90;;;;;;5073453;28;20444;-72
2021/07/30 00:08:24;;;;;;;6.33;3.70;;;20.00;61.20;;;;;;5073431;28;20448;-72
2021/07/30 00:10:54;;;;;;;7.07;3.30;;;20.00;61.00;;;;;;5073109;28;20996;-72
2021/07/30 00:13:21;;;;;;;7.43;3.87;;;19.90;60.90;;;;;;5073302;28;20471;-72
2021/07/30 00:15:48;;;;;;;11.10;3.90;;;19.90;61.20;;;;;;5073354;28;20452;-72
2021/07/30 00:18:14;;;;;;;8.03;4.00;;;19.90;61.30;;;;;;5073257;28;20483;-73
2021/07/30 00:20:41;;;;;;;12.37;3.47;;;19.90;61.10;;;;;;5073310;28;20490;-73
2021/07/30 00:23:08;;;;;;;8.53;3.90;;;19.90;61.30;;;;;;5072886;28;20521;-73
2021/07/30 00:25:36;;;;;;;7.27;3.40;;;19.90;61.70;;;;;;5073277;28;20436;-73
2021/07/30 00:28:03;;;;;;;6.73;3.57;;;19.80;62.00;;;;;;5073246;28;20433;-73
2021/07/30 00:30:30;;;;;;;8.33;4.77;;;19.80;62.10;;;;;;5073227;28;20838;-73
2021/07/30 00:32:57;;;;;;;6.93;3.60;;;19.80;62.10;;;;;;5072823;28;20985;-74
2021/07/30 00:35:24;;;;;;;6.10;3.57;;;19.90;62.30;;;;;;5073145;28;20497;-74
2021/07/30 00:37:50;;;;;;;10.67;4.33;;;19.80;63.00;;;;;;5072770;28;20994;-73
2021/07/30 00:40:17;;;;;;;10.93;4.23;;;19.80;62.80;;;;;;5073170;28;20448;-74
2021/07/30 00:42:53;;;;;;;6.60;3.87;;;19.70;63.10;;;;;;5073034;28;20460;-73
2021/07/30 00:45:21;;;;;;;10.23;3.80;;;19.70;63.60;;;;;;5073168;28;20429;-73
2021/07/30 00:47:48;;;;;;;9.43;3.83;;;19.70;63.80;;;;;;5073059;28;20582;-73
2021/07/30 00:50:16;;;;;;;7.83;3.47;;;19.60;63.90;;;;;;5073041;28;20444;-74
2021/07/30 00:52:43;;;;;;;11.60;4.20;;;19.60;64.30;;;;;;5072640;28;20465;-73
2021/07/30 00:55:11;;;;;;;6.60;3.80;;;19.60;64.70;;;;;;5072976;28;20449;-73
2021/07/30 00:57:38;;;;;;;5.13;3.73;;;19.70;64.90;;;;;;5072898;28;20480;-73
2021/07/30 01:00:07;;;;;;;9.50;4.00;;;19.60;64.70;;;;;;5076065;28;20448;-73
2021/07/30 01:02:34;;;;;;;5.83;3.60;;;19.60;64.70;;;;;;5076273;28;20467;-73
2021/07/30 01:05:01;;;;;;;6.27;3.93;;;19.60;64.60;;;;;;5076637;28;20436;-73
2021/07/30 01:07:29;;;;;;;12.90;4.63;;;19.60;64.80;;;;;;5076637;28;20444;-73
2021/07/30 01:09:55;;;;;;;14.90;4.07;;;19.60;65.00;;;;;;5076558;28;20447;-73
2021/07/30 01:12:22;;;;;;;6.33;3.33;;;19.70;65.60;;;;;;5076133;28;21016;-73
2021/07/30 01:14:49;;;;;;;10.90;3.47;;;19.60;65.10;;;;;;5076461;28;20586;-73
2021/07/30 01:17:17;;;;;;;6.77;3.70;;;19.60;65.20;;;;;;5076298;28;20483;-73
2021/07/30 01:19:44;;;;;;;5.47;3.60;;;19.60;65.50;;;;;;5076020;28;20926;-73
2021/07/30 01:22:21;;;;;;;9.37;3.73;;;19.50;65.50;;;;;;5075994;28;20878;-73
2021/07/30 01:24:49;;;;;;;9.30;3.53;;;19.50;65.90;;;;;;5076245;28;20464;-73
2021/07/30 01:27:16;;;;;;;13.80;3.90;;;19.50;66.30;;;;;;5076210;28;20441;-73
2021/07/30 01:29:43;;;;;;;7.90;3.80;;;19.50;66.60;;;;;;5076545;28;20466;-73
2021/07/30 01:32:09;;;;;;;6.87;3.07;;;19.50;66.30;;;;;;5076059;28;20510;-73
2021/07/30 01:34:36;;;;;;;6.10;4.03;;;19.50;66.50;;;;;;5075830;28;20957;-73
2021/07/30 01:37:03;;;;;;;9.17;4.20;;;19.50;66.80;;;;;;5075655;28;20905;-73
2021/07/30 01:39:29;;;;;;;10.87;4.70;;;19.60;66.80;;;;;;5075998;28;20448;-73
2021/07/30 01:41:57;;;;;;;5.90;3.67;;;19.50;66.90;;;;;;5075959;28;20440;-73
2021/07/30 01:44:24;;;;;;;9.67;3.70;;;19.50;66.70;;;;;;5075937;28;20471;-73
2021/07/30 01:46:51;;;;;;;6.10;3.30;;;19.40;66.80;;;;;;5075893;28;20437;-73
2021/07/30 01:49:18;;;;;;;7.27;3.83;;;19.40;67.10;;;;;;5075801;28;20861;-73
2021/07/30 01:51:44;;;;;;;5.10;3.33;;;19.40;67.50;;;;;;5075798;28;20440;-73
2021/07/30 01:54:14;;;;;;;6.60;3.40;;;19.40;67.70;;;;;;5075665;28;20469;-73
2021/07/30 01:56:41;;;;;;;8.70;4.10;;;19.30;67.50;;;;;;5075267;28;20452;-73
2021/07/30 01:59:09;;;;;;;6.87;3.20;;;19.40;67.60;;;;;;5075611;28;20445;-73
2021/07/30 02:01:35;;;;;;;7.33;3.60;;;19.30;67.80;;;;;;5075254;28;20823;-73
2021/07/30 02:04:02;;;;;;;9.27;3.80;;;19.30;68.00;;;;;;5075463;28;20457;-73
2021/07/30 02:06:29;;;;;;;6.33;4.27;;;19.30;68.00;;;;;;5075495;28;20448;-73
2021/07/30 02:08:56;;;;;;;4.83;3.37;;;19.30;68.20;;;;;;5075446;28;20798;-73
2021/07/30 02:11:22;;;;;;;6.13;3.10;;;19.30;68.00;;;;;;5074302;28;20468;-73
2021/07/30 02:16:40;;;;;;;10.63;3.80;;;19.30;68.30;;;;;;5064306;28;20435;-74
2021/07/30 02:19:06;;;;;;;4.73;3.40;;;19.20;68.20;;;;;;5075234;28;20448;-73
2021/07/30 02:21:33;;;;;;;7.10;3.53;;;19.20;68.30;;;;;;5074922;28;20476;-73
2021/07/30 02:24:00;;;;;;;6.20;3.27;;;19.20;68.60;;;;;;5075136;28;20464;-73
2021/07/30 02:26:27;;;;;;;5.67;3.53;;;19.20;68.60;;;;;;5075094;28;20440;-73
2021/07/30 02:28:56;;;;;;;11.93;3.43;;;19.10;68.60;;;;;;5075039;28;20812;-73
2021/07/30 02:31:24;;;;;;;6.67;3.73;;;19.10;68.90;;;;;;5075211;28;20443;-73
2021/07/30 02:33:52;;;;;;;4.83;3.80;;;19.10;69.00;;;;;;5074616;28;20993;-73
2021/07/30 02:36:19;;;;;;;5.93;3.70;;;19.10;69.10;;;;;;5074926;28;20445;-73
2021/07/30 02:38:46;;;;;;;7.03;3.40;;;19.10;69.20;;;;;;5074801;28;20526;-73
2021/07/30 02:41:13;;;;;;;5.03;3.00;;;19.00;69.00;;;;;;5074825;28;20812;-73
2021/07/30 02:43:40;;;;;;;9.50;3.20;;;19.00;69.00;;;;;;5075522;28;20819;-74
2021/07/30 02:46:06;;;;;;;7.70;3.43;;;19.00;69.30;;;;;;5074687;28;20445;-73
2021/07/30 02:48:33;;;;;;;9.13;4.40;;;19.00;68.70;;;;;;5074515;28;20495;-73
2021/07/30 02:51:01;;;;;;;9.10;4.20;;;19.00;68.70;;;;;;5074606;28;20440;-73
2021/07/30 02:53:28;;;;;;;7.73;3.30;;;19.00;68.90;;;;;;5074552;28;20471;-73
2021/07/30 02:55:55;;;;;;;7.87;3.53;;;18.90;69.00;;;;;;5074531;28;20445;-73
2021/07/30 02:58:21;;;;;;;5.63;3.63;;;18.80;69.30;;;;;;5074370;28;20480;-73
2021/07/30 03:00:48;;;;;;;11.73;4.07;;;18.80;69.70;;;;;;5074438;28;20499;-73
2021/07/30 03:03:15;;;;;;;7.87;3.77;;;18.70;69.70;;;;;;5073965;28;20970;-73
2021/07/30 03:05:41;;;;;;;11.00;4.27;;;18.70;69.90;;;;;;5074323;28;20467;-73
2021/07/30 03:08:09;;;;;;;5.20;3.50;;;18.60;70.00;;;;;;5074254;28;20441;-73
2021/07/30 03:10:36;;;;;;;4.47;3.20;;;18.60;70.40;;;;;;5074223;28;20440;-73
2021/07/30 03:13:03;;;;;;;11.37;3.20;;;18.60;70.70;;;;;;5074079;28;20460;-74
2021/07/30 03:15:29;;;;;;;4.23;3.30;;;18.50;70.70;;;;;;5074110;28;20468;-73
2021/07/30 03:17:56;;;;;;;4.80;3.33;;;18.50;70.90;;;;;;5074028;28;20472;-73
2021/07/30 03:20:23;;;;;;;6.77;3.47;;;18.40;71.30;;;;;;5074041;28;20444;-73
2021/07/30 03:22:49;;;;;;;3.67;3.27;;;18.30;71.40;;;;;;5073361;28;20487;-73
2021/07/30 03:25:18;;;;;;;5.00;3.53;;;18.30;71.60;;;;;;5073637;28;20806;-73
2021/07/30 03:27:44;;;;;;;6.30;4.27;;;18.30;71.80;;;;;;5073915;28;20494;-73
2021/07/30 03:30:13;;;;;;;8.13;3.23;;;18.30;71.90;;;;;;5073568;28;20440;-73
2021/07/30 03:32:39;;;;;;;5.93;3.23;;;18.30;71.50;;;;;;5073778;28;20464;-73
2021/07/30 03:35:07;;;;;;;6.63;2.87;;;18.30;72.50;;;;;;5073850;28;20448;-73
2021/07/30 03:37:33;;;;;;;5.43;3.03;;;18.30;71.80;;;;;;5073730;28;20483;-73
2021/07/30 03:40:00;;;;;;;5.30;3.80;;;18.30;71.90;;;;;;5073806;28;20440;-73
2021/07/30 03:42:28;;;;;;;4.13;3.67;;;18.20;72.00;;;;;;5073682;28;20464;-73
2021/07/30 03:44:55;;;;;;;9.60;3.60;;;18.30;72.10;;;;;;5073417;28;20444;-73
2021/07/30 03:47:21;;;;;;;5.17;3.13;;;18.20;72.20;;;;;;5073560;28;20934;-73
2021/07/30 03:49:48;;;;;;;5.50;3.37;;;18.20;72.30;;;;;;5073670;28;20858;-73
2021/07/30 03:52:17;;;;;;;9.83;3.37;;;18.20;72.50;;;;;;5073524;28;20448;-74
2021/07/30 03:54:44;;;;;;;5.10;3.57;;;18.20;72.50;;;;;;5073237;28;20942;-73
2021/07/30 03:57:10;;;;;;;4.43;3.60;;;18.20;72.40;;;;;;5073489;28;20445;-73
2021/07/30 03:59:38;;;;;;;3.30;3.00;;;18.20;72.40;;;;;;5073527;28;20448;-73
2021/07/30 04:02:05;;;;;;;7.10;4.10;;;18.10;72.40;;;;;;5073438;28;20444;-73
2021/07/30 04:04:32;;;;;;;9.60;3.80;;;18.10;72.60;;;;;;5073484;28;20445;-73
2021/07/30 04:06:59;;;;;;;5.23;3.40;;;18.10;72.80;;;;;;5073466;28;20440;-73
2021/07/30 04:09:25;;;;;;;5.37;3.40;;;18.00;72.80;;;;;;5073421;28;20437;-73
2021/07/30 04:11:52;;;;;;;4.60;3.33;;;17.90;73.00;;;;;;5073401;28;20440;-73
2021/07/30 04:14:19;;;;;;;4.67;3.33;;;17.90;73.10;;;;;;5073330;28;20461;-74
2021/07/30 04:16:47;;;;;;;5.80;3.20;;;18.00;73.40;;;;;;5073382;28;20452;-73
2021/07/30 04:19:14;;;;;;;3.97;3.57;;;18.00;73.40;;;;;;5073262;28;20487;-73
2021/07/30 04:21:40;;;;;;;8.57;3.20;;;18.00;73.30;;;;;;5073168;28;20506;-73
2021/07/30 04:24:07;;;;;;;5.73;2.97;;;18.00;73.30;;;;;;5073267;28;20494;-73
2021/07/30 04:26:33;;;;;;;4.13;3.03;;;18.00;73.20;;;;;;5073280;28;20475;-73
2021/07/30 04:29:00;;;;;;;3.73;3.00;;;18.00;73.30;;;;;;5073273;28;20486;-74
2021/07/30 04:31:27;;;;;;;3.80;3.50;;;18.00;73.20;;;;;;5073230;28;20444;-74
2021/07/30 04:33:55;;;;;;;4.60;3.00;;;18.00;73.20;;;;;;5074522;28;20460;-74
2021/07/30 04:36:22;;;;;;;3.80;2.90;;;18.00;73.20;;;;;;5077209;28;20444;-74
2021/07/30 04:38:48;;;;;;;4.00;3.60;;;18.10;73.30;;;;;;5077117;28;20484;-74
2021/07/30 04:41:15;;;;;;;9.47;3.23;;;18.10;73.40;;;;;;5077091;28;20444;-73
2021/07/30 04:43:43;;;;;;;5.13;3.73;;;18.10;73.30;;;;;;5076668;28;21005;-74
2021/07/30 04:46:16;;;;;;;7.23;3.53;;;18.20;72.70;;;;;;5077013;28;20448;-74
2021/07/30 04:48:43;;;;;;;5.17;3.20;;;18.20;72.60;;;;;;5076645;28;20440;-74
2021/07/30 04:51:12;;;;;;;3.00;2.73;;;18.20;72.80;;;;;;5076879;28;20444;-74
2021/07/30 04:53:39;;;;;;;4.23;3.30;;;18.20;72.90;;;;;;5076780;28;20460;-74
2021/07/30 04:56:06;;;;;;;5.50;3.70;;;18.30;73.10;;;;;;5076769;28;20486;-74
2021/07/30 04:58:33;;;;;;;5.27;3.10;;;18.30;73.10;;;;;;5076664;28;20479;-73
2021/07/30 05:01:04;;;;;;;5.20;3.10;;;18.30;73.20;;;;;;5076692;28;20441;-74
2021/07/30 05:03:30;;;;;;;3.53;2.80;;;18.30;73.30;;;;;;5076646;28;20858;-74
2021/07/30 05:05:57;;;;;;;6.00;3.60;;;18.30;72.80;;;;;;5077159;28;20451;-74
2021/07/30 05:08:25;;;;;;;4.53;3.43;;;18.30;73.20;;;;;;5076562;28;20516;-73
2021/07/30 05:10:52;;;;;;;5.30;3.47;;;18.30;73.50;;;;;;5076229;28;20926;-73
2021/07/30 05:13:20;;;;;;;4.30;2.93;;;18.30;73.80;;;;;;5076415;28;20470;-74
2021/07/30 05:15:46;;;;;;;4.80;3.00;;;18.30;74.00;;;;;;5076413;28;20444;-73
2021/07/30 05:18:13;;;;;;;7.73;3.40;;;18.30;74.00;;;;;;5076311;28;20479;-74
2021/07/30 05:20:41;;;;;;;4.97;3.43;;;18.30;74.00;;;;;;5076357;28;20451;-73
2021/07/30 05:23:07;;;;;;;6.93;3.30;;;18.30;74.30;;;;;;5075828;28;20879;-73
2021/07/30 05:25:36;;;;;;;5.50;3.60;;;18.30;74.40;;;;;;5076271;28;20444;-74
2021/07/30 05:28:03;;;;;;;4.80;3.20;;;18.30;74.50;;;;;;5076230;28;20784;-74
2021/07/30 05:30:29;;;;;;;3.23;2.93;;;18.30;75.50;;;;;;5075893;28;20494;-73
2021/07/30 05:32:56;;;;;;;5.30;3.57;;;18.40;75.00;;;;;;5076092;28;20472;-73
2021/07/30 05:35:23;;;;;;;4.50;3.63;;;18.40;75.00;;;;;;5076224;28;20440;-74
2021/07/30 05:37:49;;;;;;;4.57;3.67;;;18.40;74.80;;;;;;5075972;28;20447;-73
2021/07/30 05:40:16;;;;;;;4.80;3.03;;;18.50;74.90;;;;;;5076840;28;20452;-73
2021/07/30 05:42:44;;;;;;;7.63;3.80;;;18.50;73.90;;;;;;5075910;28;20467;-73
2021/07/30 05:45:11;;;;;;;7.53;3.80;;;18.60;73.80;;;;;;5075767;28;20788;-73
2021/07/30 05:47:38;;;;;;;5.47;3.93;;;18.60;73.20;;;;;;5076405;28;20510;-73
2021/07/30 05:50:05;;;;;;;5.17;3.40;;;18.60;73.60;;;;;;5075846;28;20441;-73
2021/07/30 05:52:33;;;;;;;3.83;3.40;;;18.70;72.70;;;;;;5075708;28;20465;-73
2021/07/30 05:54:59;;;;;;;6.40;3.30;;;18.70;71.90;;;;;;5075700;28;20543;-73
2021/07/30 05:57:26;;;;;;;5.50;3.60;;;18.70;71.70;;;;;;5075679;28;20466;-73
2021/07/30 05:59:54;;;;;;;5.30;3.17;;;18.70;71.80;;;;;;5075259;28;21001;-73
2021/07/30 06:02:21;;;;;;;9.40;3.57;;;18.80;71.10;;;;;;5075497;28;20444;-74
2021/07/30 06:04:47;;;;;;;6.63;3.70;;;18.80;71.20;;;;;;5075564;28;20560;-73
2021/07/30 06:07:14;;;;;;;4.73;3.20;;;18.80;70.70;;;;;;5075516;28;20445;-73
2021/07/30 06:09:41;;;;;;;3.87;2.97;;;18.90;71.10;;;;;;5075464;28;20444;-73
2021/07/30 06:12:08;;;;;;;9.47;3.80;;;18.90;71.00;;;;;;5075343;28;20448;-73
2021/07/30 06:14:34;;;;;;;6.53;4.00;;;18.90;69.90;;;;;;5075417;28;20441;-73
2021/07/30 06:17:03;;;;;;;7.93;2.77;;;19.00;70.00;;;;;;5075384;28;20502;-73
2021/07/30 06:19:29;;;;;;;7.37;2.67;;;19.00;69.60;;;;;;5075251;28;20473;-73
2021/07/30 06:21:57;;;;;;;5.20;3.27;;;19.10;69.80;;;;;;5075079;28;20452;-73
2021/07/30 06:24:24;;;;;;;6.70;3.50;;;19.20;70.00;;;;;;5075135;28;20465;-73
2021/07/30 06:26:51;;;;;;;6.67;3.20;;;19.30;69.30;;;;;;5075101;28;20445;-73
2021/07/30 06:29:17;;;;;;;7.27;3.10;;;19.40;68.70;;;;;;5075128;28;20486;-73
2021/07/30 06:31:44;;;;;;;5.87;3.07;;;19.50;68.70;;;;;;5075016;28;20440;-73
2021/07/30 06:34:12;;;;;;;7.57;3.23;;;19.60;68.30;;;;;;5074912;28;20464;-73
2021/07/30 06:36:39;;;;;;;3.57;2.43;;;19.70;67.70;;;;;;5074933;28;20455;-73
2021/07/30 06:39:06;;;;;;;8.63;3.07;;;19.80;67.70;;;;;;5074787;28;20529;-73
2021/07/30 06:41:32;;;;;;;7.53;2.60;;;20.00;67.30;;;;;;5074803;28;20452;-73
2021/07/30 06:43:59;;;;;;;5.37;2.80;;;20.10;66.10;;;;;;5074694;28;20522;-73
2021/07/30 06:46:26;;;;;;;4.10;2.93;;;20.20;65.70;;;;;;5074722;28;20452;-73
2021/07/30 06:48:52;;;;;;;3.57;3.20;;;20.30;65.30;;;;;;5074669;28;20444;-73
2021/07/30 06:51:20;;;;;;;8.20;3.10;;;20.40;64.90;;;;;;5074613;28;20441;-73
2021/07/30 06:53:47;;;;;;;4.83;2.33;;;20.50;64.40;;;;;;5074209;28;20457;-73
2021/07/30 06:56:15;;;;;;;5.27;2.70;;;20.50;63.60;;;;;;5073945;28;20821;-73
2021/07/30 06:58:42;;;;;;;5.30;3.87;;;20.60;63.80;;;;;;5074439;28;20476;-73
2021/07/30 07:01:08;;;;;;;4.90;2.63;;;20.60;62.90;;;;;;5074391;28;20441;-74
2021/07/30 07:03:35;;;;;;;4.63;2.53;;;20.80;62.40;;;;;;5074371;28;20530;-73
2021/07/30 07:06:02;;;;;;;3.37;2.63;;;20.90;61.90;;;;;;5074318;28;20542;-73
2021/07/30 07:08:30;;;;;;;5.40;2.70;;;21.00;61.40;;;;;;5074307;28;20441;-73
2021/07/30 07:10:56;;;;;;;2.97;2.30;;;21.20;61.00;;;;;;5073923;28;20810;-72
2021/07/30 07:13:23;;;;;;;2.77;2.57;;;21.30;60.10;;;;;;5074150;28;20878;-73
2021/07/30 07:15:50;;;;;;;3.17;2.43;;;21.50;59.90;;;;;;5074148;28;20456;-72
2021/07/30 07:18:16;;;;;;;5.30;2.90;;;21.70;59.40;;;;;;5074015;28;20444;-72
2021/07/30 07:20:43;;;;;;;3.67;2.60;;;21.90;58.70;;;;;;5073706;28;20953;-71
2021/07/30 07:23:10;;;;;;;3.83;2.70;;;22.10;57.90;;;;;;5073578;28;20479;-72
2021/07/30 07:25:38;;;;;;;2.97;2.30;;;22.30;57.80;;;;;;5074783;28;20451;-72
2021/07/30 07:28:05;;;;;;;4.33;2.50;;;22.60;57.80;;;;;;5073920;28;20441;-72
2021/07/30 07:30:31;;;;;;;3.20;2.20;;;22.80;57.40;;;;;;5073902;28;20448;-72
2021/07/30 07:32:58;;;;;;;3.60;2.60;;;23.00;56.20;;;;;;5073800;28;20464;-72
2021/07/30 07:35:25;;;;;;;5.67;2.63;;;23.10;55.70;;;;;;5073490;28;20452;-71
2021/07/30 07:37:52;;;;;;;3.40;2.23;;;23.20;55.90;;;;;;5073944;28;20536;-72
2021/07/30 07:40:18;;;;;;;6.40;2.70;;;23.10;55.30;;;;;;5073697;28;20476;-74
2021/07/30 07:42:46;;;;;;;5.27;2.80;;;23.20;55.70;;;;;;5073672;28;20464;-74
2021/07/30 07:45:13;;;;;;;6.40;2.80;;;23.20;55.70;;;;;;5073392;28;20451;-74
2021/07/30 07:47:40;;;;;;;3.20;2.43;;;23.20;55.50;;;;;;5074494;28;20452;-74
2021/07/30 07:50:07;;;;;;;2.53;2.33;;;23.10;56.00;;;;;;5073618;28;20436;-73
2021/07/30 07:52:34;;;;;;;6.00;2.53;;;23.00;56.40;;;;;;5073554;28;20468;-72
2021/07/30 07:55:01;;;;;;;7.00;2.57;;;23.00;56.10;;;;;;5073537;28;20480;-74
2021/07/30 07:57:28;;;;;;;6.37;2.63;;;23.00;55.60;;;;;;5073303;28;20448;-72
2021/07/30 07:59:56;;;;;;;3.23;2.37;;;23.00;55.60;;;;;;5073507;28;20521;-72
2021/07/30 08:02:23;;;;;;;2.73;2.23;;;23.10;55.80;;;;;;5073442;28;20469;-73
2021/07/30 08:04:49;;;;;;;4.77;2.60;;;23.30;55.40;;;;;;5073500;28;20545;-72
2021/07/30 08:07:17;;;;;;;3.93;2.67;;;23.40;55.30;;;;;;5073388;28;20457;-72
2021/07/30 08:09:44;;;;;;;3.47;2.10;;;23.60;55.40;;;;;;5072729;28;20494;-73
2021/07/30 08:12:11;;;;;;;4.60;2.17;;;23.90;54.80;;;;;;5073351;28;20548;-73
2021/07/30 08:14:38;;;;;;;5.67;2.20;;;24.10;54.40;;;;;;5073484;28;20440;-72
2021/07/30 08:17:06;;;;;;;3.67;2.07;;;24.40;54.00;;;;;;5073388;28;20475;-72
2021/07/30 08:19:34;;;;;;;8.53;2.10;;;24.70;52.40;;;;;;5073333;28;20473;-72
2021/07/30 08:22:01;;;;;;;4.83;2.37;;;24.90;51.00;;;;;;5072822;28;20476;-72
2021/07/30 08:24:27;;;;;;;3.13;2.07;;;25.10;50.00;;;;;;5073220;28;20521;-73
2021/07/30 08:26:54;;;;;;;5.37;2.57;;;25.20;49.30;;;;;;5073005;28;20946;-73
2021/07/30 08:29:21;;;;;;;2.83;1.90;;;25.40;49.80;;;;;;5073270;28;20436;-72
2021/07/30 08:31:48;;;;;;;4.73;2.40;;;25.60;48.50;;;;;;5072902;28;20448;-73
2021/07/30 08:34:16;;;;;;;4.03;1.97;;;25.80;48.00;;;;;;5072944;28;20463;-73
2021/07/30 08:36:43;;;;;;;3.57;2.00;;;26.10;47.90;;;;;;5073270;28;20441;-73
2021/07/30 08:39:10;;;;;;;3.10;2.33;;;26.30;47.40;;;;;;5073107;28;20488;-73
2021/07/30 08:41:37;;;;;;;7.87;1.80;;;26.50;46.70;;;;;;5072804;28;20445;-73
2021/07/30 08:44:04;;;;;;;4.30;2.30;;;26.60;46.40;;;;;;5073082;28;20517;-73
2021/07/30 08:46:31;;;;;;;3.63;2.10;;;26.70;46.70;;;;;;5073086;28;20452;-73
2021/07/30 08:48:58;;;;;;;3.87;2.10;;;26.80;44.70;;;;;;5073155;28;20459;-73
2021/07/30 08:51:32;;;;;;;4.87;2.10;;;27.00;44.60;;;;;;5073607;28;20452;-73
2021/07/30 08:53:59;;;;;;;3.90;2.33;;;27.10;44.40;;;;;;5073480;28;20996;-73
2021/07/30 08:56:26;;;;;;;4.10;2.50;;;27.10;45.70;;;;;;5073014;28;20452;-72
2021/07/30 08:58:52;;;;;;;3.73;2.03;;;27.00;44.30;;;;;;5072955;28;20437;-73
2021/07/30 09:01:19;;;;;;;3.47;2.20;;;26.80;45.10;;;;;;5072938;28;20865;-73
2021/07/30 09:03:47;;;;;;;6.00;2.90;;;26.50;45.30;;;;;;5072959;28;20465;-73
2021/07/30 09:06:16;;;;;;;4.50;2.60;;;26.50;46.00;;;;;;5072953;28;20456;-73
2021/07/30 09:08:44;;;;;;;6.13;2.00;;;26.60;45.40;;;;;;5072949;28;20440;-73
2021/07/30 09:11:26;;;;;;;4.53;2.60;;;26.90;46.50;;;;;;5072878;28;20441;-73
2021/07/30 09:13:53;;;;;;;4.03;1.97;;;27.20;45.20;;;;;;5072879;28;20464;-72
2021/07/30 09:16:20;;;;;;;5.23;2.50;;;27.50;45.00;;;;;;5072529;28;20838;-72
2021/07/30 09:18:46;;;;;;;2.77;2.50;;;27.60;44.50;;;;;;5072885;28;20443;-72
2021/07/30 09:21:18;;;;;;;3.60;2.40;;;27.80;44.30;;;;;;5075908;28;20514;-72
2021/07/30 09:23:51;;;;;;;2.90;2.30;;;27.90;42.30;;;;;;5076328;28;20487;-72
2021/07/30 09:26:28;;;;;;;5.30;2.23;;;27.80;41.70;;;;;;5075998;28;20938;-72
2021/07/30 09:28:56;;;;;;;3.73;2.07;;;27.70;42.50;;;;;;5077114;28;20425;-72
2021/07/30 09:31:35;;;;;;;6.43;2.70;;;27.80;42.50;;;;;;5076175;28;20483;-73
2021/07/30 09:34:14;;;;;;;3.60;2.53;;;28.00;42.80;;;;;;5075812;28;20500;-74
2021/07/30 09:36:45;;;;;;;6.90;2.47;;;27.90;41.80;;;;;;5076176;28;20429;-74
2021/07/30 09:39:14;;;;;;;5.33;2.43;;;27.80;41.90;;;;;;5076059;28;20428;-75
2021/07/30 09:41:50;;;;;;;3.50;2.50;;;27.80;43.80;;;;;;5076081;28;20450;-74
2021/07/30 09:44:19;;;;;;;4.67;2.60;;;27.90;42.80;;;;;;5075937;28;20456;-74
2021/07/30 09:47:11;;;;;;;4.60;2.90;;;27.80;42.00;;;;;;5075969;28;20456;-74
2021/07/30 09:49:54;;;;;;;6.83;2.90;;;27.90;43.60;;;;;;5075937;28;20417;-73
2021/07/30 09:52:23;;;;;;;4.23;2.60;;;27.90;41.70;;;;;;5074111;28;20457;-74
2021/07/30 09:54:56;;;;;;;2.97;2.70;;;27.90;44.10;;;;;;5075795;28;20448;-74
2021/07/30 09:57:25;;;;;;;2.73;2.10;;;28.10;43.60;;;;;;5075886;28;20425;-74
2021/07/30 09:59:52;;;;;;;4.10;2.70;;;28.40;41.80;;;;;;5075684;28;20480;-74
2021/07/30 10:02:20;;;;;;;7.03;2.60;;;28.80;42.00;;;;;;5075549;28;20444;-74
2021/07/30 10:04:49;;;;;;;2.80;2.60;;;29.10;41.10;;;;;;5075672;28;20449;-74
2021/07/30 10:07:18;;;;;;;3.87;2.83;;;29.30;38.70;;;;;;5075572;28;20448;-74
2021/07/30 10:09:48;;;;;;;6.00;2.80;;;29.40;38.50;;;;;;5075368;28;20814;-74
2021/07/30 10:12:17;;;;;;;4.43;2.67;;;29.30;38.20;;;;;;5075316;28;20874;-73
2021/07/30 10:14:45;;;;;;;3.33;2.33;;;29.40;40.30;;;;;;5075438;28;20473;-73
2021/07/30 10:17:15;;;;;;;3.30;2.87;;;29.20;38.80;;;;;;5075418;28;20440;-73
2021/07/30 10:19:43;;;;;;;3.20;2.63;;;29.30;39.50;;;;;;5075272;28;20469;-73
2021/07/30 10:22:13;;;;;;;10.50;3.13;;;29.40;38.70;;;;;;5074924;28;20547;-73
2021/07/30 10:24:45;;;;;;;3.13;2.93;;;29.30;38.90;;;;;;5075212;28;20452;-73
2021/07/30 10:27:14;;;;;;;3.70;2.53;;;29.40;40.50;;;;;;5074884;28;20776;-73
2021/07/30 10:30:12;;;;;;;4.53;2.83;;;29.70;38.70;;;;;;5075191;28;20437;-74
2021/07/30 10:32:43;;;;;;;2.80;2.60;;;29.80;39.00;;;;;;5074064;28;20492;-73
2021/07/30 10:35:10;;;;;;;4.00;2.80;;;29.80;39.50;;;;;;5075076;28;20835;-74
2021/07/30 10:37:38;;;;;;;3.73;2.73;;;29.90;38.10;;;;;;5074609;28;20893;-74
2021/07/30 10:40:27;;;;;;;4.87;3.33;;;30.40;38.50;;;;;;5074851;28;20472;-74
2021/07/30 10:43:04;;;;;;;4.47;3.57;;;30.30;36.60;;;;;;5070877;28;20476;-74
2021/07/30 10:45:33;;;;;;;2.83;2.63;;;30.30;37.80;;;;;;5074785;28;20421;-74
2021/07/30 10:48:31;;;;;;;6.90;3.80;;;30.30;36.90;;;;;;5074681;28;20440;-74
2021/07/30 10:50:59;;;;;;;3.90;2.70;;;30.20;37.70;;;;;;5074704;28;20482;-73
2021/07/30 10:53:46;;;;;;;3.13;2.83;;;30.10;37.60;;;;;;5074547;28;20468;-73
2021/07/30 10:56:46;;;;;;;4.90;3.13;;;30.70;36.40;;;;;;5074565;28;20491;-74
2021/07/30 10:59:12;;;;;;;4.10;3.10;;;31.90;34.80;;;;;;5074548;28;20785;-73
2021/07/30 11:02:00;;;;;;;5.13;3.20;;;32.80;34.00;;;;;;5074333;28;20479;-74
2021/07/30 11:04:28;;;;;;;5.03;3.20;;;33.90;30.80;;;;;;5074382;28;20552;-74
2021/07/30 11:06:56;;;;;;;2.67;2.47;;;34.70;28.90;;;;;;5074368;28;20439;-74
2021/07/30 11:09:39;;;;;;;4.63;3.10;;;35.00;27.50;;;;;;5074212;28;20443;-74
2021/07/30 11:12:19;;;;;;;4.90;3.20;;;35.30;27.10;;;;;;5073801;28;20985;-74
2021/07/30 11:14:48;;;;;;;3.20;2.70;;;35.20;26.40;;;;;;5074092;28;20451;-74
2021/07/30 11:17:16;;;;;;;4.90;2.90;;;34.80;27.60;;;;;;5074108;28;20448;-74
2021/07/30 11:19:46;;;;;;;3.03;2.73;;;34.70;28.40;;;;;;5073786;28;21059;-74
2021/07/30 11:22:14;;;;;;;4.47;3.53;;;34.20;28.60;;;;;;5073684;28;20464;-74
2021/07/30 11:24:42;;;;;;;2.90;2.57;;;33.80;29.10;;;;;;5073731;28;20436;-74
2021/07/30 11:27:11;;;;;;;4.00;3.40;;;33.50;29.50;;;;;;5073647;28;20953;-74
2021/07/30 11:29:42;;;;;;;3.30;3.00;;;33.30;29.90;;;;;;5073966;28;20888;-74
2021/07/30 11:32:09;;;;;;;3.53;3.20;;;33.40;30.20;;;;;;5074218;28;20432;-74
2021/07/30 11:34:39;;;;;;;2.97;2.77;;;34.10;29.20;;;;;;5073960;28;20440;-74
2021/07/30 11:37:07;;;;;;;4.83;3.20;;;34.40;28.10;;;;;;5073877;28;20444;-74
2021/07/30 11:39:38;;;;;;;4.70;2.70;;;34.60;28.00;;;;;;5073804;28;20444;-74
2021/07/30 11:42:06;;;;;;;3.20;2.90;;;34.90;27.60;;;;;;5073613;28;20519;-74
2021/07/30 11:44:42;;;;;;;2.90;2.70;;;35.00;27.60;;;;;;5073542;28;20428;-74
2021/07/30 11:47:10;;;;;;;3.30;3.00;;;34.90;27.90;;;;;;5073741;28;20462;-74
2021/07/30 11:49:39;;;;;;;5.17;2.93;;;34.90;28.70;;;;;;5073711;28;20497;-74
2021/07/30 11:52:07;;;;;;;3.07;2.73;;;34.80;28.00;;;;;;5073650;28;20452;-74
2021/07/30 11:54:35;;;;;;;4.90;2.70;;;35.30;27.90;;;;;;5073394;28;20501;-74
2021/07/30 11:57:02;;;;;;;3.30;3.00;;;36.20;26.40;;;;;;5073313;28;20501;-74
2021/07/30 11:59:43;;;;;;;4.53;2.90;;;36.80;25.90;;;;;;5073636;28;20485;-74
2021/07/30 12:02:10;;;;;;;3.27;2.97;;;36.90;24.90;;;;;;5073652;28;20428;-74
2021/07/30 12:04:48;;;;;;;5.27;3.10;;;37.00;25.20;;;;;;5073610;28;20444;-74
2021/07/30 12:07:17;;;;;;;7.00;2.83;;;37.10;25.30;;;;;;5073629;28;20474;-74
2021/07/30 12:09:47;;;;;;;2.60;2.40;;;37.00;25.10;;;;;;5073539;28;20451;-73
2021/07/30 12:12:15;;;;;;;4.10;2.77;;;37.00;25.50;;;;;;5073464;28;20470;-73
2021/07/30 12:14:47;;;;;;;5.97;2.97;;;37.40;25.40;;;;;;5073129;28;20578;-73
2021/07/30 12:17:15;;;;;;;3.60;3.13;;;37.80;25.30;;;;;;5073418;28;20635;-73
2021/07/30 12:19:43;;;;;;;3.70;2.90;;;38.20;24.70;;;;;;5073402;28;20734;-73
2021/07/30 12:22:10;;;;;;;5.43;3.10;;;37.90;24.90;;;;;;5072997;28;20225;-75
2021/07/30 12:24:48;;;;;;;2.93;2.73;;;37.30;24.90;;;;;;5073428;28;20208;-74
2021/07/30 12:27:19;;;;;;;2.93;2.73;;;37.40;25.50;;;;;;5073374;28;20561;-75
2021/07/30 12:29:47;;;;;;;4.10;2.80;;;37.90;25.00;;;;;;5073336;28;20202;-74
2021/07/30 12:32:16;;;;;;;3.00;2.80;;;37.70;24.60;;;;;;5073190;28;20202;-73
2021/07/30 12:34:55;;;;;;;4.20;2.87;;;37.60;24.90;;;;;;5073244;28;20198;-73
2021/07/30 12:37:22;;;;;;;5.37;2.40;;;37.70;25.30;;;;;;5073278;28;20241;-73
2021/07/30 12:39:51;;;;;;;3.87;3.03;;;37.60;24.50;;;;;;5073327;28;20440;-74
2021/07/30 12:42:19;;;;;;;3.27;2.67;;;37.60;24.50;;;;;;5072998;28;20699;-75
2021/07/30 12:45:06;;;;;;;2.70;2.50;;;38.10;24.60;;;;;;5073168;28;20288;-74
2021/07/30 12:47:34;;;;;;;3.40;2.53;;;39.10;24.40;;;;;;5073171;28;20218;-75
2021/07/30 12:50:23;;;;;;;3.85;3.28;;;39.70;22.20;;;;;;5072817;28;20296;-74
2021/07/30 12:53:13;;;;;;;3.20;2.90;;;40.70;21.00;;;;;;5072728;28;20573;-74
2021/07/30 12:56:03;;;;;;;5.78;3.08;;;40.30;20.90;;;;;;5075579;28;20304;-74